sensor_id;sensor_type;location;lat;lon;timestamp;P1;durP1;ratioP1;P2;durP2;ratioP2
45490;SDS011;31237;45.586;13.782;2022-12-24T00:00:25;2.03;;;1.40;;
45490;SDS011;31237;45.586;13.782;2022-12-24T00:02:52;0.80;;;0.80;;
45490;SDS011;31237;45.586;13.782;2022-12-24T00:05:18;0.93;;;0.93;;
45490;SDS011;31237;45.586;13.782;2022-12-24T00:07:43;1.23;;;1.15;;
45490;SDS011;31237;45.586;13.782;2022-12-24T00:10:09;3.25;;;1.90;;
45490;SDS011;31237;45.586;13.782;2022-12-24T00:12:35;1.17;;;1.15;;
45490;SDS011;31237;45.586;13.782;2022-12-24T00:15:01;1.45;;;1.35;;
45490;SDS011;31237;45.586;13.782;2022-12-24T00:17:28;5.97;;;2.65;;
45490;SDS011;31237;45.586;13.782;2022-12-24T00:19:54;1.52;;;1.45;;
45490;SDS011;31237;45.586;13.782;2022-12-24T00:22:20;0.70;;;0.70;;
45490;SDS011;31237;45.586;13.782;2022-12-24T00:24:45;1.33;;;1.33;;
45490;SDS011;31237;45.586;13.782;2022-12-24T00:27:11;1.30;;;1.23;;
45490;SDS011;31237;45.586;13.782;2022-12-24T00:29:37;0.60;;;0.60;;
45490;SDS011;31237;45.586;13.782;2022-12-24T00:32:03;0.60;;;0.60;;
45490;SDS011;31237;45.586;13.782;2022-12-24T00:34:32;0.50;;;0.50;;
45490;SDS011;31237;45.586;13.782;2022-12-24T00:36:58;1.33;;;1.23;;
45490;SDS011;31237;45.586;13.782;2022-12-24T00:39:24;0.70;;;0.70;;
45490;SDS011;31237;45.586;13.782;2022-12-24T00:41:49;0.80;;;0.80;;
45490;SDS011;31237;45.586;13.782;2022-12-24T00:44:15;0.98;;;0.98;;
45490;SDS011;31237;45.586;13.782;2022-12-24T00:46:41;1.33;;;1.23;;
45490;SDS011;31237;45.586;13.782;2022-12-24T00:49:07;0.73;;;0.73;;
45490;SDS011;31237;45.586;13.782;2022-12-24T00:51:35;2.00;;;1.83;;
45490;SDS011;31237;45.586;13.782;2022-12-24T00:54:01;0.60;;;0.60;;
45490;SDS011;31237;45.586;13.782;2022-12-24T00:56:27;1.15;;;1.05;;
45490;SDS011;31237;45.586;13.782;2022-12-24T00:58:53;0.70;;;0.70;;
45490;SDS011;31237;45.586;13.782;2022-12-24T01:01:19;0.70;;;0.70;;
45490;SDS011;31237;45.586;13.782;2022-12-24T01:03:47;0.50;;;0.50;;
45490;SDS011;31237;45.586;13.782;2022-12-24T01:06:17;0.85;;;0.85;;
45490;SDS011;31237;45.586;13.782;2022-12-24T01:08:45;0.90;;;0.90;;
45490;SDS011;31237;45.586;13.782;2022-12-24T01:11:14;0.60;;;0.60;;
45490;SDS011;31237;45.586;13.782;2022-12-24T01:13:41;1.35;;;1.25;;
45490;SDS011;31237;45.586;13.782;2022-12-24T01:16:17;0.60;;;0.60;;
45490;SDS011;31237;45.586;13.782;2022-12-24T01:18:44;0.75;;;0.75;;
45490;SDS011;31237;45.586;13.782;2022-12-24T01:21:10;0.50;;;0.50;;
45490;SDS011;31237;45.586;13.782;2022-12-24T01:23:35;0.40;;;0.40;;
45490;SDS011;31237;45.586;13.782;2022-12-24T01:26:02;0.93;;;0.93;;
45490;SDS011;31237;45.586;13.782;2022-12-24T01:28:29;0.80;;;0.80;;
45490;SDS011;31237;45.586;13.782;2022-12-24T01:30:56;1.45;;;1.35;;
45490;SDS011;31237;45.586;13.782;2022-12-24T01:33:22;0.70;;;0.70;;
45490;SDS011;31237;45.586;13.782;2022-12-24T01:35:47;1.75;;;0.93;;
45490;SDS011;31237;45.586;13.782;2022-12-24T01:38:13;0.70;;;0.70;;
45490;SDS011;31237;45.586;13.782;2022-12-24T01:40:40;1.45;;;1.40;;
45490;SDS011;31237;45.586;13.782;2022-12-24T01:43:26;0.50;;;0.50;;
45490;SDS011;31237;45.586;13.782;2022-12-24T01:45:55;0.60;;;0.60;;
45490;SDS011;31237;45.586;13.782;2022-12-24T01:50:59;0.75;;;0.75;;
45490;SDS011;31237;45.586;13.782;2022-12-24T01:53:30;0.57;;;0.57;;
45490;SDS011;31237;45.586;13.782;2022-12-24T01:55:58;0.50;;;0.50;;
45490;SDS011;31237;45.586;13.782;2022-12-24T01:58:25;0.60;;;0.60;;
45490;SDS011;31237;45.586;13.782;2022-12-24T02:00:51;0.70;;;0.70;;
45490;SDS011;31237;45.586;13.782;2022-12-24T02:03:17;0.55;;;0.55;;
45490;SDS011;31237;45.586;13.782;2022-12-24T02:08:17;0.70;;;0.70;;
45490;SDS011;31237;45.586;13.782;2022-12-24T02:10:44;0.85;;;0.85;;
45490;SDS011;31237;45.586;13.782;2022-12-24T02:13:11;0.75;;;0.75;;
45490;SDS011;31237;45.586;13.782;2022-12-24T02:15:45;0.52;;;0.52;;
45490;SDS011;31237;45.586;13.782;2022-12-24T02:18:35;0.50;;;0.50;;
45490;SDS011;31237;45.586;13.782;2022-12-24T02:21:44;0.80;;;0.80;;
45490;SDS011;31237;45.586;13.782;2022-12-24T02:24:21;0.50;;;0.50;;
45490;SDS011;31237;45.586;13.782;2022-12-24T02:27:00;0.50;;;0.50;;
45490;SDS011;31237;45.586;13.782;2022-12-24T02:35:08;1.38;;;1.30;;
45490;SDS011;31237;45.586;13.782;2022-12-24T02:37:50;0.70;;;0.70;;
45490;SDS011;31237;45.586;13.782;2022-12-24T02:40:30;0.70;;;0.70;;
45490;SDS011;31237;45.586;13.782;2022-12-24T02:43:06;0.73;;;0.73;;
45490;SDS011;31237;45.586;13.782;2022-12-24T02:45:38;0.98;;;0.98;;
45490;SDS011;31237;45.586;13.782;2022-12-24T02:48:06;1.77;;;1.67;;
45490;SDS011;31237;45.586;13.782;2022-12-24T02:50:33;1.55;;;1.45;;
45490;SDS011;31237;45.586;13.782;2022-12-24T02:52:59;1.35;;;1.20;;
45490;SDS011;31237;45.586;13.782;2022-12-24T02:55:28;1.95;;;1.75;;
45490;SDS011;31237;45.586;13.782;2022-12-24T03:04:51;5.53;;;2.55;;
45490;SDS011;31237;45.586;13.782;2022-12-24T03:12:33;0.68;;;0.68;;
45490;SDS011;31237;45.586;13.782;2022-12-24T03:15:04;2.83;;;2.50;;
45490;SDS011;31237;45.586;13.782;2022-12-24T03:17:33;2.67;;;2.50;;
45490;SDS011;31237;45.586;13.782;2022-12-24T03:20:01;2.15;;;2.05;;
45490;SDS011;31237;45.586;13.782;2022-12-24T03:22:29;1.13;;;1.02;;
45490;SDS011;31237;45.586;13.782;2022-12-24T03:24:58;0.75;;;0.75;;
45490;SDS011;31237;45.586;13.782;2022-12-24T03:27:25;1.33;;;1.30;;
45490;SDS011;31237;45.586;13.782;2022-12-24T03:29:53;4.13;;;2.45;;
45490;SDS011;31237;45.586;13.782;2022-12-24T03:32:23;1.85;;;1.38;;
45490;SDS011;31237;45.586;13.782;2022-12-24T03:34:52;1.35;;;1.25;;
45490;SDS011;31237;45.586;13.782;2022-12-24T03:37:18;0.55;;;0.55;;
45490;SDS011;31237;45.586;13.782;2022-12-24T03:39:44;1.27;;;1.17;;
45490;SDS011;31237;45.586;13.782;2022-12-24T03:42:10;0.90;;;0.90;;
45490;SDS011;31237;45.586;13.782;2022-12-24T03:44:36;0.70;;;0.70;;
45490;SDS011;31237;45.586;13.782;2022-12-24T03:47:01;1.15;;;1.05;;
45490;SDS011;31237;45.586;13.782;2022-12-24T03:49:27;0.90;;;0.90;;
45490;SDS011;31237;45.586;13.782;2022-12-24T03:51:53;0.50;;;0.50;;
45490;SDS011;31237;45.586;13.782;2022-12-24T03:54:18;0.65;;;0.65;;
45490;SDS011;31237;45.586;13.782;2022-12-24T03:56:44;0.65;;;0.65;;
45490;SDS011;31237;45.586;13.782;2022-12-24T03:59:10;0.50;;;0.50;;
45490;SDS011;31237;45.586;13.782;2022-12-24T04:01:35;2.08;;;1.52;;
45490;SDS011;31237;45.586;13.782;2022-12-24T04:04:01;0.95;;;0.95;;
45490;SDS011;31237;45.586;13.782;2022-12-24T04:06:27;2.65;;;1.55;;
45490;SDS011;31237;45.586;13.782;2022-12-24T04:08:53;1.00;;;0.77;;
45490;SDS011;31237;45.586;13.782;2022-12-24T04:11:18;1.83;;;1.73;;
45490;SDS011;31237;45.586;13.782;2022-12-24T04:13:44;3.58;;;1.65;;
45490;SDS011;31237;45.586;13.782;2022-12-24T04:16:12;1.30;;;1.20;;
45490;SDS011;31237;45.586;13.782;2022-12-24T04:18:39;0.80;;;0.80;;
45490;SDS011;31237;45.586;13.782;2022-12-24T04:21:06;2.78;;;2.13;;
45490;SDS011;31237;45.586;13.782;2022-12-24T04:23:33;1.42;;;1.33;;
45490;SDS011;31237;45.586;13.782;2022-12-24T04:26:00;0.80;;;0.80;;
45490;SDS011;31237;45.586;13.782;2022-12-24T04:28:28;1.48;;;1.38;;
45490;SDS011;31237;45.586;13.782;2022-12-24T04:31:01;2.72;;;1.45;;
45490;SDS011;31237;45.586;13.782;2022-12-24T04:33:28;1.30;;;1.30;;
45490;SDS011;31237;45.586;13.782;2022-12-24T04:35:57;1.25;;;1.15;;
45490;SDS011;31237;45.586;13.782;2022-12-24T04:38:24;1.27;;;1.17;;
45490;SDS011;31237;45.586;13.782;2022-12-24T04:40:59;1.60;;;1.50;;
45490;SDS011;31237;45.586;13.782;2022-12-24T04:43:36;0.73;;;0.73;;
45490;SDS011;31237;45.586;13.782;2022-12-24T04:46:03;0.73;;;0.73;;
45490;SDS011;31237;45.586;13.782;2022-12-24T04:48:39;1.23;;;1.23;;
45490;SDS011;31237;45.586;13.782;2022-12-24T04:51:06;0.70;;;0.70;;
45490;SDS011;31237;45.586;13.782;2022-12-24T04:53:33;0.50;;;0.50;;
45490;SDS011;31237;45.586;13.782;2022-12-24T04:56:00;1.10;;;1.08;;
45490;SDS011;31237;45.586;13.782;2022-12-24T04:58:26;0.80;;;0.80;;
45490;SDS011;31237;45.586;13.782;2022-12-24T05:00:52;0.80;;;0.80;;
45490;SDS011;31237;45.586;13.782;2022-12-24T05:03:18;0.82;;;0.82;;
45490;SDS011;31237;45.586;13.782;2022-12-24T05:05:44;0.90;;;0.88;;
45490;SDS011;31237;45.586;13.782;2022-12-24T05:08:10;0.65;;;0.65;;
45490;SDS011;31237;45.586;13.782;2022-12-24T05:10:36;0.60;;;0.60;;
45490;SDS011;31237;45.586;13.782;2022-12-24T05:13:02;0.82;;;0.82;;
45490;SDS011;31237;45.586;13.782;2022-12-24T05:15:27;0.85;;;0.85;;
45490;SDS011;31237;45.586;13.782;2022-12-24T05:17:53;0.60;;;0.60;;
45490;SDS011;31237;45.586;13.782;2022-12-24T05:20:19;2.30;;;0.80;;
45490;SDS011;31237;45.586;13.782;2022-12-24T05:22:45;0.60;;;0.60;;
45490;SDS011;31237;45.586;13.782;2022-12-24T05:28:19;0.80;;;0.80;;
45490;SDS011;31237;45.586;13.782;2022-12-24T05:30:44;0.52;;;0.52;;
45490;SDS011;31237;45.586;13.782;2022-12-24T05:33:10;0.52;;;0.52;;
45490;SDS011;31237;45.586;13.782;2022-12-24T05:35:36;0.60;;;0.60;;
45490;SDS011;31237;45.586;13.782;2022-12-24T05:38:02;0.60;;;0.60;;
45490;SDS011;31237;45.586;13.782;2022-12-24T05:40:27;0.68;;;0.68;;
45490;SDS011;31237;45.586;13.782;2022-12-24T05:42:53;0.98;;;0.98;;
45490;SDS011;31237;45.586;13.782;2022-12-24T05:45:19;2.15;;;2.03;;
45490;SDS011;31237;45.586;13.782;2022-12-24T05:47:44;2.15;;;2.05;;
45490;SDS011;31237;45.586;13.782;2022-12-24T05:50:10;2.00;;;1.42;;
45490;SDS011;31237;45.586;13.782;2022-12-24T05:52:36;1.48;;;1.38;;
45490;SDS011;31237;45.586;13.782;2022-12-24T05:55:02;3.22;;;1.23;;
45490;SDS011;31237;45.586;13.782;2022-12-24T05:57:28;0.60;;;0.60;;
45490;SDS011;31237;45.586;13.782;2022-12-24T05:59:54;0.90;;;0.90;;
45490;SDS011;31237;45.586;13.782;2022-12-24T06:02:20;0.47;;;0.47;;
45490;SDS011;31237;45.586;13.782;2022-12-24T06:04:45;0.80;;;0.80;;
45490;SDS011;31237;45.586;13.782;2022-12-24T06:07:11;3.70;;;2.40;;
45490;SDS011;31237;45.586;13.782;2022-12-24T06:09:37;2.28;;;1.48;;
45490;SDS011;31237;45.586;13.782;2022-12-24T06:12:03;1.27;;;1.25;;
45490;SDS011;31237;45.586;13.782;2022-12-24T06:14:28;1.23;;;1.15;;
45490;SDS011;31237;45.586;13.782;2022-12-24T06:16:54;1.50;;;1.40;;
45490;SDS011;31237;45.586;13.782;2022-12-24T06:19:20;4.78;;;1.17;;
45490;SDS011;31237;45.586;13.782;2022-12-24T06:21:46;0.90;;;0.90;;
45490;SDS011;31237;45.586;13.782;2022-12-24T06:24:11;0.63;;;0.63;;
45490;SDS011;31237;45.586;13.782;2022-12-24T06:26:37;0.95;;;0.95;;
45490;SDS011;31237;45.586;13.782;2022-12-24T06:29:03;0.88;;;0.88;;
45490;SDS011;31237;45.586;13.782;2022-12-24T06:31:29;1.63;;;1.52;;
45490;SDS011;31237;45.586;13.782;2022-12-24T06:33:54;1.38;;;1.23;;
45490;SDS011;31237;45.586;13.782;2022-12-24T06:36:21;2.35;;;1.27;;
45490;SDS011;31237;45.586;13.782;2022-12-24T06:38:48;0.90;;;0.90;;
45490;SDS011;31237;45.586;13.782;2022-12-24T06:41:15;4.30;;;1.15;;
45490;SDS011;31237;45.586;13.782;2022-12-24T06:43:43;3.50;;;1.17;;
45490;SDS011;31237;45.586;13.782;2022-12-24T06:46:09;0.52;;;0.52;;
45490;SDS011;31237;45.586;13.782;2022-12-24T06:48:36;0.75;;;0.75;;
45490;SDS011;31237;45.586;13.782;2022-12-24T06:51:01;0.90;;;0.90;;
45490;SDS011;31237;45.586;13.782;2022-12-24T06:53:28;0.40;;;0.40;;
45490;SDS011;31237;45.586;13.782;2022-12-24T06:56:01;0.63;;;0.63;;
45490;SDS011;31237;45.586;13.782;2022-12-24T06:58:31;0.52;;;0.52;;
45490;SDS011;31237;45.586;13.782;2022-12-24T07:01:01;0.75;;;0.75;;
45490;SDS011;31237;45.586;13.782;2022-12-24T07:03:27;0.60;;;0.60;;
45490;SDS011;31237;45.586;13.782;2022-12-24T07:05:53;0.50;;;0.50;;
45490;SDS011;31237;45.586;13.782;2022-12-24T07:08:19;1.00;;;1.00;;
45490;SDS011;31237;45.586;13.782;2022-12-24T07:10:45;0.90;;;0.90;;
45490;SDS011;31237;45.586;13.782;2022-12-24T07:13:13;0.80;;;0.80;;
45490;SDS011;31237;45.586;13.782;2022-12-24T07:15:39;0.47;;;0.47;;
45490;SDS011;31237;45.586;13.782;2022-12-24T07:18:05;1.48;;;0.93;;
45490;SDS011;31237;45.586;13.782;2022-12-24T07:20:30;0.50;;;0.50;;
45490;SDS011;31237;45.586;13.782;2022-12-24T07:22:56;1.42;;;1.33;;
45490;SDS011;31237;45.586;13.782;2022-12-24T07:25:22;1.17;;;1.15;;
45490;SDS011;31237;45.586;13.782;2022-12-24T07:27:47;0.93;;;0.93;;
45490;SDS011;31237;45.586;13.782;2022-12-24T07:30:13;4.28;;;2.00;;
45490;SDS011;31237;45.586;13.782;2022-12-24T07:32:39;0.70;;;0.70;;
45490;SDS011;31237;45.586;13.782;2022-12-24T07:35:05;1.13;;;1.13;;
45490;SDS011;31237;45.586;13.782;2022-12-24T07:37:31;2.13;;;1.98;;
45490;SDS011;31237;45.586;13.782;2022-12-24T07:39:57;0.70;;;0.70;;
45490;SDS011;31237;45.586;13.782;2022-12-24T07:42:23;0.93;;;0.93;;
45490;SDS011;31237;45.586;13.782;2022-12-24T07:44:49;3.97;;;1.45;;
45490;SDS011;31237;45.586;13.782;2022-12-24T07:47:14;0.95;;;0.95;;
45490;SDS011;31237;45.586;13.782;2022-12-24T07:49:40;1.83;;;1.73;;
45490;SDS011;31237;45.586;13.782;2022-12-24T07:52:06;5.03;;;1.92;;
45490;SDS011;31237;45.586;13.782;2022-12-24T07:54:32;1.95;;;1.58;;
45490;SDS011;31237;45.586;13.782;2022-12-24T07:56:58;1.38;;;1.27;;
45490;SDS011;31237;45.586;13.782;2022-12-24T07:59:23;1.80;;;1.55;;
45490;SDS011;31237;45.586;13.782;2022-12-24T08:01:49;1.48;;;1.38;;
45490;SDS011;31237;45.586;13.782;2022-12-24T08:04:15;4.35;;;1.35;;
45490;SDS011;31237;45.586;13.782;2022-12-24T08:06:40;2.63;;;2.22;;
45490;SDS011;31237;45.586;13.782;2022-12-24T08:09:06;3.40;;;2.05;;
45490;SDS011;31237;45.586;13.782;2022-12-24T08:11:32;2.85;;;2.55;;
45490;SDS011;31237;45.586;13.782;2022-12-24T08:13:58;8.20;;;3.70;;
45490;SDS011;31237;45.586;13.782;2022-12-24T08:16:24;1.33;;;1.23;;
45490;SDS011;31237;45.586;13.782;2022-12-24T08:18:49;2.33;;;2.13;;
45490;SDS011;31237;45.586;13.782;2022-12-24T08:21:15;4.18;;;2.78;;
45490;SDS011;31237;45.586;13.782;2022-12-24T08:23:41;1.65;;;1.55;;
45490;SDS011;31237;45.586;13.782;2022-12-24T08:26:07;1.10;;;1.05;;
45490;SDS011;31237;45.586;13.782;2022-12-24T08:28:34;1.73;;;1.63;;
45490;SDS011;31237;45.586;13.782;2022-12-24T08:31:00;1.55;;;1.45;;
45490;SDS011;31237;45.586;13.782;2022-12-24T08:33:26;5.32;;;2.78;;
45490;SDS011;31237;45.586;13.782;2022-12-24T08:35:53;2.53;;;1.88;;
45490;SDS011;31237;45.586;13.782;2022-12-24T08:38:20;3.92;;;3.50;;
45490;SDS011;31237;45.586;13.782;2022-12-24T08:40:46;2.22;;;2.10;;
45490;SDS011;31237;45.586;13.782;2022-12-24T08:43:14;3.95;;;3.28;;
45490;SDS011;31237;45.586;13.782;2022-12-24T08:45:40;1.77;;;1.67;;
45490;SDS011;31237;45.586;13.782;2022-12-24T08:48:07;1.50;;;1.40;;
45490;SDS011;31237;45.586;13.782;2022-12-24T08:50:34;2.72;;;2.50;;
45490;SDS011;31237;45.586;13.782;2022-12-24T08:53:02;2.45;;;2.20;;
45490;SDS011;31237;45.586;13.782;2022-12-24T08:55:27;3.05;;;2.75;;
45490;SDS011;31237;45.586;13.782;2022-12-24T08:57:53;7.72;;;3.15;;
45490;SDS011;31237;45.586;13.782;2022-12-24T09:00:19;1.58;;;1.48;;
45490;SDS011;31237;45.586;13.782;2022-12-24T09:02:45;2.25;;;2.10;;
45490;SDS011;31237;45.586;13.782;2022-12-24T09:05:10;1.50;;;1.40;;
45490;SDS011;31237;45.586;13.782;2022-12-24T09:07:36;1.40;;;1.30;;
45490;SDS011;31237;45.586;13.782;2022-12-24T09:10:02;1.98;;;1.70;;
45490;SDS011;31237;45.586;13.782;2022-12-24T09:12:28;4.20;;;2.92;;
45490;SDS011;31237;45.586;13.782;2022-12-24T09:14:54;5.28;;;2.83;;
45490;SDS011;31237;45.586;13.782;2022-12-24T09:17:20;2.50;;;2.30;;
45490;SDS011;31237;45.586;13.782;2022-12-24T09:19:46;1.63;;;1.52;;
45490;SDS011;31237;45.586;13.782;2022-12-24T09:22:12;1.88;;;1.58;;
45490;SDS011;31237;45.586;13.782;2022-12-24T09:24:38;4.47;;;2.85;;
45490;SDS011;31237;45.586;13.782;2022-12-24T09:27:04;11.10;;;2.70;;
45490;SDS011;31237;45.586;13.782;2022-12-24T09:29:30;5.95;;;4.85;;
45490;SDS011;31237;45.586;13.782;2022-12-24T09:31:56;3.15;;;2.85;;
45490;SDS011;31237;45.586;13.782;2022-12-24T09:34:22;5.32;;;3.25;;
45490;SDS011;31237;45.586;13.782;2022-12-24T09:36:48;5.32;;;4.40;;
45490;SDS011;31237;45.586;13.782;2022-12-24T09:39:16;3.92;;;2.30;;
45490;SDS011;31237;45.586;13.782;2022-12-24T09:47:11;3.03;;;2.83;;
45490;SDS011;31237;45.586;13.782;2022-12-24T09:49:42;3.53;;;1.98;;
45490;SDS011;31237;45.586;13.782;2022-12-24T09:52:14;2.78;;;2.35;;
45490;SDS011;31237;45.586;13.782;2022-12-24T09:54:51;2.53;;;2.10;;
45490;SDS011;31237;45.586;13.782;2022-12-24T09:57:28;0.80;;;0.80;;
45490;SDS011;31237;45.586;13.782;2022-12-24T10:00:28;2.00;;;1.83;;
45490;SDS011;31237;45.586;13.782;2022-12-24T10:02:57;2.53;;;2.33;;
45490;SDS011;31237;45.586;13.782;2022-12-24T10:05:44;2.92;;;2.03;;
45490;SDS011;31237;45.586;13.782;2022-12-24T10:08:33;4.22;;;2.30;;
45490;SDS011;31237;45.586;13.782;2022-12-24T10:11:14;1.05;;;1.02;;
45490;SDS011;31237;45.586;13.782;2022-12-24T10:22:59;1.50;;;1.40;;
45490;SDS011;31237;45.586;13.782;2022-12-24T10:28:02;1.70;;;1.60;;
45490;SDS011;31237;45.586;13.782;2022-12-24T10:30:36;2.05;;;1.95;;
45490;SDS011;31237;45.586;13.782;2022-12-24T10:33:08;2.03;;;1.88;;
45490;SDS011;31237;45.586;13.782;2022-12-24T10:35:52;2.03;;;1.85;;
45490;SDS011;31237;45.586;13.782;2022-12-24T10:38:21;1.92;;;1.55;;
45490;SDS011;31237;45.586;13.782;2022-12-24T10:40:50;1.50;;;1.40;;
45490;SDS011;31237;45.586;13.782;2022-12-24T10:43:23;1.90;;;1.73;;
45490;SDS011;31237;45.586;13.782;2022-12-24T10:45:51;1.83;;;1.73;;
45490;SDS011;31237;45.586;13.782;2022-12-24T10:48:22;2.83;;;2.58;;
45490;SDS011;31237;45.586;13.782;2022-12-24T10:54:05;1.33;;;1.23;;
45490;SDS011;31237;45.586;13.782;2022-12-24T10:56:46;2.80;;;2.60;;
45490;SDS011;31237;45.586;13.782;2022-12-24T10:59:23;3.42;;;2.05;;
45490;SDS011;31237;45.586;13.782;2022-12-24T11:02:00;1.23;;;1.17;;
45490;SDS011;31237;45.586;13.782;2022-12-24T11:04:30;8.05;;;3.45;;
45490;SDS011;31237;45.586;13.782;2022-12-24T11:07:10;3.35;;;3.15;;
45490;SDS011;31237;45.586;13.782;2022-12-24T11:09:44;4.60;;;4.00;;
45490;SDS011;31237;45.586;13.782;2022-12-24T11:12:28;12.45;;;4.68;;
45490;SDS011;31237;45.586;13.782;2022-12-24T11:17:25;10.73;;;4.10;;
45490;SDS011;31237;45.586;13.782;2022-12-24T11:19:51;2.92;;;2.70;;
45490;SDS011;31237;45.586;13.782;2022-12-24T11:22:18;2.80;;;2.60;;
45490;SDS011;31237;45.586;13.782;2022-12-24T11:25:10;3.28;;;2.88;;
45490;SDS011;31237;45.586;13.782;2022-12-24T11:27:49;2.92;;;2.70;;
45490;SDS011;31237;45.586;13.782;2022-12-24T11:32:45;3.65;;;2.85;;
45490;SDS011;31237;45.586;13.782;2022-12-24T11:35:27;1.77;;;1.67;;
45490;SDS011;31237;45.586;13.782;2022-12-24T11:40:34;7.30;;;2.47;;
45490;SDS011;31237;45.586;13.782;2022-12-24T11:45:47;2.33;;;2.13;;
45490;SDS011;31237;45.586;13.782;2022-12-24T11:48:33;1.85;;;1.75;;
45490;SDS011;31237;45.586;13.782;2022-12-24T11:51:00;1.45;;;1.35;;
45490;SDS011;31237;45.586;13.782;2022-12-24T11:53:30;1.85;;;1.75;;
45490;SDS011;31237;45.586;13.782;2022-12-24T11:56:06;4.43;;;2.60;;
45490;SDS011;31237;45.586;13.782;2022-12-24T11:58:43;3.00;;;1.25;;
45490;SDS011;31237;45.586;13.782;2022-12-24T12:01:28;1.98;;;1.60;;
45490;SDS011;31237;45.586;13.782;2022-12-24T12:04:05;1.13;;;1.13;;
45490;SDS011;31237;45.586;13.782;2022-12-24T12:06:43;2.40;;;2.25;;
45490;SDS011;31237;45.586;13.782;2022-12-24T12:09:28;1.35;;;1.17;;
45490;SDS011;31237;45.586;13.782;2022-12-24T12:12:01;0.80;;;0.80;;
45490;SDS011;31237;45.586;13.782;2022-12-24T12:14:36;1.35;;;1.30;;
45490;SDS011;31237;45.586;13.782;2022-12-24T12:17:28;0.75;;;0.75;;
45490;SDS011;31237;45.586;13.782;2022-12-24T12:20:14;0.90;;;0.90;;
45490;SDS011;31237;45.586;13.782;2022-12-24T12:25:50;1.45;;;1.35;;
45490;SDS011;31237;45.586;13.782;2022-12-24T12:28:27;1.42;;;1.33;;
45490;SDS011;31237;45.586;13.782;2022-12-24T12:31:04;2.42;;;2.05;;
45490;SDS011;31237;45.586;13.782;2022-12-24T12:36:04;2.50;;;1.70;;
45490;SDS011;31237;45.586;13.782;2022-12-24T12:38:33;2.45;;;1.45;;
45490;SDS011;31237;45.586;13.782;2022-12-24T12:41:00;4.10;;;2.33;;
45490;SDS011;31237;45.586;13.782;2022-12-24T12:46:13;1.97;;;1.77;;
45490;SDS011;31237;45.586;13.782;2022-12-24T12:56:54;1.60;;;1.50;;
45490;SDS011;31237;45.586;13.782;2022-12-24T13:21:54;1.23;;;1.20;;
45490;SDS011;31237;45.586;13.782;2022-12-24T13:24:24;1.63;;;1.52;;
45490;SDS011;31237;45.586;13.782;2022-12-24T13:34:49;2.80;;;2.53;;
45490;SDS011;31237;45.586;13.782;2022-12-24T13:40:26;2.55;;;1.65;;
45490;SDS011;31237;45.586;13.782;2022-12-24T13:48:40;2.63;;;1.98;;
45490;SDS011;31237;45.586;13.782;2022-12-24T13:50:44;1.70;;;1.60;;
45490;SDS011;31237;45.586;13.782;2022-12-24T13:55:54;3.10;;;1.90;;
45490;SDS011;31237;45.586;13.782;2022-12-24T13:58:28;1.33;;;1.25;;
45490;SDS011;31237;45.586;13.782;2022-12-24T14:00:55;1.52;;;1.42;;
45490;SDS011;31237;45.586;13.782;2022-12-24T14:06:00;0.65;;;0.65;;
45490;SDS011;31237;45.586;13.782;2022-12-24T14:08:40;0.57;;;0.57;;
45490;SDS011;31237;45.586;13.782;2022-12-24T14:11:13;3.40;;;2.15;;
45490;SDS011;31237;45.586;13.782;2022-12-24T14:16:12;1.42;;;1.33;;
45490;SDS011;31237;45.586;13.782;2022-12-24T14:18:39;2.85;;;1.63;;
45490;SDS011;31237;45.586;13.782;2022-12-24T14:21:12;1.67;;;1.58;;
45490;SDS011;31237;45.586;13.782;2022-12-24T14:23:48;1.52;;;1.42;;
45490;SDS011;31237;45.586;13.782;2022-12-24T14:26:22;1.33;;;1.25;;
45490;SDS011;31237;45.586;13.782;2022-12-24T14:29:00;2.03;;;1.88;;
45490;SDS011;31237;45.586;13.782;2022-12-24T14:31:54;0.60;;;0.60;;
45490;SDS011;31237;45.586;13.782;2022-12-24T14:34:21;0.77;;;0.75;;
45490;SDS011;31237;45.586;13.782;2022-12-24T14:36:47;0.55;;;0.55;;
45490;SDS011;31237;45.586;13.782;2022-12-24T14:39:35;0.85;;;0.85;;
45490;SDS011;31237;45.586;13.782;2022-12-24T14:51:26;0.95;;;0.88;;
45490;SDS011;31237;45.586;13.782;2022-12-24T14:56:24;1.38;;;1.27;;
45490;SDS011;31237;45.586;13.782;2022-12-24T14:58:49;2.63;;;1.40;;
45490;SDS011;31237;45.586;13.782;2022-12-24T15:01:19;1.27;;;1.27;;
45490;SDS011;31237;45.586;13.782;2022-12-24T15:04:32;0.90;;;0.90;;
45490;SDS011;31237;45.586;13.782;2022-12-24T15:09:40;1.77;;;1.35;;
45490;SDS011;31237;45.586;13.782;2022-12-24T15:12:01;0.40;;;0.40;;
45490;SDS011;31237;45.586;13.782;2022-12-24T15:14:29;2.72;;;1.58;;
45490;SDS011;31237;45.586;13.782;2022-12-24T15:17:01;0.85;;;0.85;;
45490;SDS011;31237;45.586;13.782;2022-12-24T15:19:32;0.50;;;0.50;;
45490;SDS011;31237;45.586;13.782;2022-12-24T15:22:01;2.05;;;1.35;;
45490;SDS011;31237;45.586;13.782;2022-12-24T15:24:29;0.85;;;0.85;;
45490;SDS011;31237;45.586;13.782;2022-12-24T15:26:57;0.50;;;0.50;;
45490;SDS011;31237;45.586;13.782;2022-12-24T15:29:27;1.08;;;1.08;;
45490;SDS011;31237;45.586;13.782;2022-12-24T15:31:58;1.40;;;1.35;;
45490;SDS011;31237;45.586;13.782;2022-12-24T15:34:34;0.82;;;0.80;;
45490;SDS011;31237;45.586;13.782;2022-12-24T15:39:57;0.50;;;0.50;;
45490;SDS011;31237;45.586;13.782;2022-12-24T15:42:30;0.60;;;0.60;;
45490;SDS011;31237;45.586;13.782;2022-12-24T15:47:38;0.68;;;0.68;;
45490;SDS011;31237;45.586;13.782;2022-12-24T15:50:14;1.92;;;0.98;;
45490;SDS011;31237;45.586;13.782;2022-12-24T15:52:42;1.08;;;1.08;;
45490;SDS011;31237;45.586;13.782;2022-12-24T15:55:30;0.82;;;0.82;;
45490;SDS011;31237;45.586;13.782;2022-12-24T15:58:23;0.85;;;0.85;;
45490;SDS011;31237;45.586;13.782;2022-12-24T16:03:28;0.65;;;0.65;;
45490;SDS011;31237;45.586;13.782;2022-12-24T16:05:59;1.02;;;0.93;;
45490;SDS011;31237;45.586;13.782;2022-12-24T16:13:58;1.13;;;1.13;;
45490;SDS011;31237;45.586;13.782;2022-12-24T16:16:57;0.50;;;0.50;;
45490;SDS011;31237;45.586;13.782;2022-12-24T16:19:23;0.77;;;0.77;;
45490;SDS011;31237;45.586;13.782;2022-12-24T16:21:55;0.50;;;0.50;;
45490;SDS011;31237;45.586;13.782;2022-12-24T16:24:23;0.70;;;0.70;;
45490;SDS011;31237;45.586;13.782;2022-12-24T16:26:52;0.50;;;0.50;;
45490;SDS011;31237;45.586;13.782;2022-12-24T16:29:18;0.60;;;0.60;;
45490;SDS011;31237;45.586;13.782;2022-12-24T16:31:50;1.58;;;1.48;;
45490;SDS011;31237;45.586;13.782;2022-12-24T16:34:28;6.53;;;2.35;;
45490;SDS011;31237;45.586;13.782;2022-12-24T16:36:54;0.55;;;0.55;;
45490;SDS011;31237;45.586;13.782;2022-12-24T16:39:22;1.27;;;1.17;;
45490;SDS011;31237;45.586;13.782;2022-12-24T16:41:54;1.23;;;1.13;;
45490;SDS011;31237;45.586;13.782;2022-12-24T16:44:40;0.60;;;0.60;;
45490;SDS011;31237;45.586;13.782;2022-12-24T16:47:20;0.80;;;0.80;;
45490;SDS011;31237;45.586;13.782;2022-12-24T16:49:50;2.03;;;1.33;;
45490;SDS011;31237;45.586;13.782;2022-12-24T16:52:18;1.23;;;1.15;;
45490;SDS011;31237;45.586;13.782;2022-12-24T16:54:46;0.63;;;0.55;;
45490;SDS011;31237;45.586;13.782;2022-12-24T16:57:15;0.88;;;0.88;;
45490;SDS011;31237;45.586;13.782;2022-12-24T16:59:41;2.00;;;1.88;;
45490;SDS011;31237;45.586;13.782;2022-12-24T17:02:08;2.05;;;1.70;;
45490;SDS011;31237;45.586;13.782;2022-12-24T17:04:38;0.85;;;0.85;;
45490;SDS011;31237;45.586;13.782;2022-12-24T17:07:04;4.00;;;1.27;;
45490;SDS011;31237;45.586;13.782;2022-12-24T17:09:30;1.90;;;1.77;;
45490;SDS011;31237;45.586;13.782;2022-12-24T17:11:56;0.70;;;0.70;;
45490;SDS011;31237;45.586;13.782;2022-12-24T17:14:22;0.98;;;0.98;;